Time;durP1;ratioP1;P1;durP2;ratioP2;P2;SDS_P1;SDS_P2;PMS_P1;PMS_P2;Temp;Humidity;BMP_temperature;BMP_pressure;BME280_temperature;BME280_humidity;BME280_pressure;Samples;Min_cycle;Max_cycle;Signal;HPM_P1;HPM_P2
2023/07/06 00:00:17;;;;;;;23.65;12.73;;;;;;;-143.21;81.29;71451.56;5133993;27;20191;-79
2023/07/06 00:02:44;;;;;;;23.08;15.45;;;;;;;-143.21;80.83;71455.53;5133937;27;20603;-79
2023/07/06 00:05:11;;;;;;;25.85;18.20;;;;;;;-143.21;80.89;71455.53;5134407;27;20199;-79
2023/07/06 00:07:38;;;;;;;20.98;14.65;;;;;;;-143.21;80.64;71449.56;5133852;27;20195;-79
2023/07/06 00:10:05;;;;;;;16.55;12.57;;;;;;;-143.21;80.75;71455.53;5119045;27;20207;-78
2023/07/06 00:12:33;;;;;;;24.02;15.27;;;;;;;-143.21;80.73;71455.53;5113315;28;20627;-78
2023/07/06 00:15:01;;;;;;;20.50;14.43;;;;;;;-143.21;80.98;71455.53;5113103;28;20282;-78
2023/07/06 00:17:28;;;;;;;20.45;14.65;;;;;;;-143.21;81.04;71449.56;5112727;28;20196;-79
2023/07/06 00:19:54;;;;;;;19.88;13.32;;;;;;;-143.21;80.68;71445.59;5113452;28;20192;-81
2023/07/06 00:22:21;;;;;;;18.10;12.73;;;;;;;-143.21;80.97;71445.59;5113219;28;20195;-82
2023/07/06 00:24:48;;;;;;;18.75;12.50;;;;;;;-143.21;80.89;71445.59;5113406;28;20191;-82
2023/07/06 00:27:16;;;;;;;22.48;13.45;;;;;;;-143.21;80.87;71445.59;5113033;28;20192;-81
2023/07/06 00:29:56;;;;;;;20.90;12.98;;;;;;;-143.21;81.36;71441.63;5112983;28;20193;-82
2023/07/06 00:32:31;;;;;;;19.65;12.77;;;;;;;-143.21;81.86;71437.69;5113533;28;20188;-82
2023/07/06 00:34:59;;;;;;;28.95;13.40;;;;;;;-143.21;82.24;71435.69;5112964;28;20202;-83
2023/07/06 00:37:26;;;;;;;21.25;15.07;;;;;;;-143.21;81.71;71431.72;5112139;28;20183;-81
2023/07/06 00:39:53;;;;;;;23.77;15.65;;;;;;;-143.21;81.45;71423.78;5125417;27;20199;-81
2023/07/06 00:42:22;;;;;;;23.60;14.90;;;;;;;-143.21;81.73;71419.84;5132939;27;20290;-81
2023/07/06 00:44:52;;;;;;;34.00;17.88;;;;;;;-143.21;81.70;71415.88;5133069;27;20637;-82
2023/07/06 00:47:24;;;;;;;35.03;21.05;;;;;;;-143.21;81.57;71419.84;5133037;27;20194;-80
2023/07/06 00:49:52;;;;;;;30.45;21.58;;;;;;;-143.21;81.58;71427.75;5132759;27;20187;-79
2023/07/06 00:52:20;;;;;;;35.00;21.15;;;;;;;-143.21;82.24;71431.72;5132442;27;20196;-80
2023/07/06 00:54:47;;;;;;;31.30;20.25;;;;;;;-143.21;81.99;71427.75;5132492;27;20283;-80
2023/07/06 00:57:18;;;;;;;31.67;19.83;;;;;;;-143.21;82.63;71427.75;5132970;27;20202;-79
2023/07/06 00:59:46;;;;;;;31.88;18.95;;;;;;;-143.21;82.84;71425.78;5132577;27;20204;-79
2023/07/06 01:02:16;;;;;;;34.60;18.67;;;;;;;-143.21;82.75;71419.84;5132565;27;20660;-79
2023/07/06 01:04:44;;;;;;;30.23;19.58;;;;;;;-143.21;83.10;71425.78;5131623;27;20679;-78
2023/07/06 01:07:19;;;;;;;27.40;17.70;;;;;;;-143.21;83.47;71427.75;5132178;27;20242;-79
2023/07/06 01:09:47;;;;;;;31.23;18.00;;;;;;;-143.21;83.96;71425.78;5120434;27;20225;-78
2023/07/06 01:12:14;;;;;;;31.10;17.73;;;;;;;-143.21;83.79;71421.81;5112819;28;20287;-80
2023/07/06 01:14:42;;;;;;;30.52;18.10;;;;;;;-143.21;83.67;71409.91;5111816;28;20289;-80
2023/07/06 01:17:21;;;;;;;27.45;17.83;;;;;;;-143.21;83.85;71413.88;5111892;28;20192;-79
2023/07/06 01:20:16;;;;;;;26.60;17.17;;;;;;;-143.21;84.29;71413.88;5111864;28;20215;-80
2023/07/06 01:23:17;;;;;;;28.30;17.27;;;;;;;-143.21;84.39;71415.88;5111326;28;20242;-79
2023/07/06 01:26:07;;;;;;;27.33;17.38;;;;;;;-143.21;84.49;71417.84;5111908;28;20676;-80
2023/07/06 01:28:55;;;;;;;31.27;17.48;;;;;;;-143.21;84.80;71415.88;5111890;28;20206;-80
2023/07/06 01:31:30;;;;;;;28.92;17.90;;;;;;;-143.21;85.06;71419.84;5111944;28;20180;-80
2023/07/06 01:34:06;;;;;;;30.33;20.17;;;;;;;-143.21;84.95;71409.91;5111807;28;20191;-80
2023/07/06 01:36:39;;;;;;;29.80;20.35;;;;;;;-143.21;84.67;71413.88;5111210;28;20223;-76
2023/07/06 01:39:14;;;;;;;27.70;18.38;;;;;;;-143.21;85.12;71413.88;5111289;28;20196;-75
2023/07/06 01:41:42;;;;;;;31.65;18.95;;;;;;;-143.21;85.08;71417.84;5111266;28;20200;-75
2023/07/06 01:44:11;;;;;;;37.17;18.40;;;;;;;-143.21;85.48;71427.75;5111284;28;20265;-75
2023/07/06 01:46:49;;;;;;;28.77;17.63;;;;;;;-143.21;85.41;71427.75;5111970;28;20321;-75
2023/07/06 01:49:17;;;;;;;32.75;19.27;;;;;;;-143.21;85.93;71433.72;5111635;28;20192;-75
2023/07/06 01:51:54;;;;;;;30.70;21.40;;;;;;;-143.21;85.92;71431.72;5111280;28;20196;-75
2023/07/06 01:54:27;;;;;;;32.90;19.58;;;;;;;-143.21;85.88;71437.69;5111642;28;20607;-75
2023/07/06 01:56:59;;;;;;;34.40;22.50;;;;;;;-143.21;85.13;71437.69;5111452;28;20188;-75
2023/07/06 01:59:32;;;;;;;56.45;30.10;;;;;;;-143.21;84.99;71441.63;5111293;28;20190;-75
2023/07/06 02:02:04;;;;;;;56.83;30.55;;;;;;;-143.21;84.65;71443.63;5111752;28;20279;-75
2023/07/06 02:04:35;;;;;;;52.42;29.77;;;;;;;-143.21;84.88;71449.56;5111534;28;20232;-75
2023/07/06 02:07:03;;;;;;;45.58;26.55;;;;;;;-143.21;85.53;71461.47;5111110;28;20203;-75
2023/07/06 02:09:30;;;;;;;51.58;28.23;;;;;;;-143.21;85.67;71463.44;5111243;28;20199;-75
2023/07/06 02:11:57;;;;;;;33.03;19.35;;;;;;;-143.21;85.81;71463.44;5111782;28;20218;-76
2023/07/06 02:14:25;;;;;;;26.90;14.45;;;;;;;-143.21;85.95;71473.38;5111408;28;20697;-76
2023/07/06 02:16:52;;;;;;;23.13;12.38;;;;;;;-143.21;86.03;71475.34;5115346;28;20192;-76
2023/07/06 02:19:21;;;;;;;23.27;12.52;;;;;;;-143.21;85.70;71475.34;5115678;28;20188;-76
2023/07/06 02:21:50;;;;;;;25.23;12.63;;;;;;;-143.21;85.85;71477.34;5129151;27;20227;-76
2023/07/06 02:24:18;;;;;;;22.15;13.43;;;;;;;-143.21;86.15;71477.34;5133181;27;20215;-77
2023/07/06 02:26:45;;;;;;;22.65;14.57;;;;;;;-143.21;86.07;71473.38;5132748;27;20191;-76
2023/07/06 02:29:14;;;;;;;20.95;12.05;;;;;;;-143.21;86.03;71479.31;5133256;27;20191;-77
2023/07/06 02:31:41;;;;;;;17.23;11.43;;;;;;;-143.21;85.89;71487.25;5132966;27;20197;-77
2023/07/06 02:34:08;;;;;;;24.50;11.00;;;;;;;-143.21;85.78;71481.28;5131356;27;20207;-77
2023/07/06 02:36:37;;;;;;;17.83;10.75;;;;;;;-143.21;85.81;71481.28;5133093;27;20227;-77
2023/07/06 02:39:04;;;;;;;18.05;9.88;;;;;;;-143.21;85.69;71481.28;5126889;27;20294;-76
2023/07/06 02:41:32;;;;;;;22.48;10.98;;;;;;;-143.21;86.22;71483.28;5112700;28;20266;-79
2023/07/06 02:43:58;;;;;;;18.75;10.18;;;;;;;-143.21;86.41;71483.28;5112468;28;20273;-80
2023/07/06 02:46:25;;;;;;;23.52;10.45;;;;;;;-143.21;86.31;71479.31;5112881;28;20200;-80
2023/07/06 02:48:52;;;;;;;19.75;11.55;;;;;;;-143.21;86.38;71483.28;5112495;28;20659;-79
2023/07/06 02:51:19;;;;;;;16.80;11.63;;;;;;;-143.21;86.81;71493.19;5112748;28;20674;-79
2023/07/06 02:53:47;;;;;;;20.88;12.77;;;;;;;-143.21;86.90;71491.22;5112780;28;20231;-77
2023/07/06 02:56:14;;;;;;;23.08;12.40;;;;;;;-143.21;87.01;71491.22;5112186;28;20203;-76
2023/07/06 02:58:42;;;;;;;20.50;14.07;;;;;;;-143.21;87.22;71499.13;5112350;28;20196;-77
2023/07/06 03:01:09;;;;;;;20.63;12.75;;;;;;;-143.21;87.20;71501.13;5112868;28;20192;-77
2023/07/06 03:03:35;;;;;;;16.75;12.55;;;;;;;-143.21;87.01;71499.13;5111898;28;20239;-76
2023/07/06 03:06:03;;;;;;;15.63;11.13;;;;;;;-143.21;87.06;71505.09;5112647;28;20686;-76
2023/07/06 03:08:30;;;;;;;23.25;12.15;;;;;;;-143.21;86.65;71499.13;5111741;28;20230;-75
2023/07/06 03:10:58;;;;;;;17.00;11.05;;;;;;;-143.21;86.80;71493.19;5111983;28;20274;-75
2023/07/06 03:13:28;;;;;;;24.50;11.25;;;;;;;-143.21;86.68;71495.19;5111453;28;20584;-75
2023/07/06 03:15:56;;;;;;;15.65;11.25;;;;;;;-143.21;86.58;71493.19;5111942;28;20223;-77
2023/07/06 03:18:23;;;;;;;17.60;11.40;;;;;;;-143.21;86.62;71491.22;5111379;28;20196;-76
2023/07/06 03:20:50;;;;;;;17.85;11.50;;;;;;;-143.21;86.46;71495.19;5111331;28;20203;-77
2023/07/06 03:23:18;;;;;;;20.60;11.32;;;;;;;-143.21;86.75;71489.22;5111702;28;20252;-76
2023/07/06 03:25:46;;;;;;;27.48;12.02;;;;;;;-143.21;86.69;71485.25;5111794;28;20200;-77
2023/07/06 03:28:15;;;;;;;25.83;11.70;;;;;;;-143.21;85.64;71495.19;5110952;28;20204;-80
2023/07/06 03:30:43;;;;;;;21.10;10.98;;;;;;;-143.21;85.90;71491.22;5112190;28;20261;-80
2023/07/06 03:33:10;;;;;;;20.90;11.23;;;;;;;-143.21;86.10;71489.22;5111269;28;20200;-77
2023/07/06 03:35:41;;;;;;;18.00;11.45;;;;;;;-143.21;85.65;71493.19;5109398;28;20270;-77
2023/07/06 03:38:07;;;;;;;16.38;11.82;;;;;;;-143.21;85.33;71495.19;5110683;28;20196;-77
2023/07/06 03:40:34;;;;;;;16.33;12.23;;;;;;;-143.21;85.28;71493.19;5110891;28;20582;-77
2023/07/06 03:43:03;;;;;;;15.50;12.15;;;;;;;-143.21;85.58;71487.25;5111576;28;20207;-77
2023/07/06 03:45:32;;;;;;;19.70;12.52;;;;;;;-143.21;85.49;71489.22;5110943;28;20216;-77
2023/07/06 03:47:59;;;;;;;18.75;13.38;;;;;;;-143.21;85.30;71489.22;5111150;28;20289;-77
2023/07/06 03:50:26;;;;;;;19.23;13.70;;;;;;;-143.21;85.87;71493.19;5111452;28;20200;-79
2023/07/06 03:52:53;;;;;;;17.00;12.10;;;;;;;-143.21;86.08;71501.13;5111295;28;20235;-78
2023/07/06 03:55:24;;;;;;;14.25;11.38;;;;;;;-143.21;85.43;71491.22;5111316;28;20188;-78
2023/07/06 03:57:51;;;;;;;17.00;11.18;;;;;;;-143.21;85.67;71493.19;5111098;28;20289;-78
2023/07/06 04:00:21;;;;;;;18.60;11.93;;;;;;;-143.21;85.33;71481.28;5111202;28;20185;-78
2023/07/06 04:02:52;;;;;;;15.30;10.65;;;;;;;-143.21;85.17;71477.34;5111200;28;20195;-78
2023/07/06 04:05:22;;;;;;;17.85;11.07;;;;;;;-143.21;84.77;71469.41;5110988;28;20315;-78
2023/07/06 04:07:52;;;;;;;18.98;10.73;;;;;;;-143.21;85.45;71473.38;5110756;27;20192;-78
2023/07/06 04:10:19;;;;;;;15.70;9.50;;;;;;;-143.21;85.20;71473.38;5110905;28;20238;-79
2023/07/06 04:12:46;;;;;;;17.42;9.93;;;;;;;-143.21;84.46;71467.41;5110589;28;20188;-79
2023/07/06 04:15:13;;;;;;;16.38;9.95;;;;;;;-143.21;84.59;71463.44;5110844;28;20215;-79
2023/07/06 04:17:40;;;;;;;15.02;10.13;;;;;;;-143.21;84.73;71463.44;5110741;28;20219;-78
2023/07/06 04:20:18;;;;;;;14.68;10.20;;;;;;;-143.21;84.30;71453.53;5110800;28;20192;-78
2023/07/06 04:22:46;;;;;;;15.38;10.43;;;;;;;-143.21;84.20;71453.53;5110765;28;20188;-78
2023/07/06 04:25:29;;;;;;;13.95;10.65;;;;;;;-143.21;84.18;71445.59;5111323;28;20220;-78
2023/07/06 04:28:06;;;;;;;17.98;9.73;;;;;;;-143.21;84.33;71451.56;5111213;28;20196;-79
2023/07/06 04:30:34;;;;;;;13.45;10.07;;;;;;;-143.21;84.08;71445.59;5108649;28;20277;-79
2023/07/06 04:33:01;;;;;;;14.75;9.10;;;;;;;-143.21;84.17;71447.59;5110125;28;20192;-78
2023/07/06 04:35:31;;;;;;;16.40;9.20;;;;;;;-143.21;83.84;71433.72;5108600;28;20330;-78
2023/07/06 04:37:59;;;;;;;18.92;9.38;;;;;;;-143.21;83.64;71427.75;5110366;28;20188;-78
2023/07/06 04:40:26;;;;;;;13.77;9.63;;;;;;;-143.21;82.90;71417.84;5110759;28;20200;-79
2023/07/06 04:43:02;;;;;;;14.27;8.85;;;;;;;-143.21;83.16;71415.88;5110704;28;20204;-80
2023/07/06 04:45:29;;;;;;;15.80;9.32;;;;;;;-143.21;83.13;71419.84;5110631;28;20204;-81
2023/07/06 04:47:56;;;;;;;11.60;8.98;;;;;;;-143.21;82.99;71411.91;5111386;28;20222;-78
2023/07/06 04:50:24;;;;;;;15.30;8.77;;;;;;;-143.21;83.36;71407.94;5111133;28;20200;-78
2023/07/06 04:52:55;;;;;;;19.08;9.45;;;;;;;-143.21;83.31;71411.91;5109683;28;20616;-76
2023/07/06 04:55:23;;;;;;;15.02;9.82;;;;;;;-143.21;83.46;71405.94;5109540;28;20257;-77
2023/07/06 04:57:52;;;;;;;14.57;9.82;;;;;;;-143.21;83.46;71400.00;5109839;28;20203;-75
2023/07/06 05:00:24;;;;;;;16.88;10.35;;;;;;;-143.21;82.62;71390.09;5109647;28;20249;-75
2023/07/06 05:02:53;;;;;;;15.38;8.57;;;;;;;-143.21;82.81;71394.06;5109952;28;20216;-75
2023/07/06 05:05:20;;;;;;;17.65;9.27;;;;;;;-143.21;82.65;71390.09;5109457;28;20216;-76
2023/07/06 05:07:47;;;;;;;15.02;9.25;;;;;;;-143.21;82.59;71388.09;5109396;28;20199;-75
2023/07/06 05:10:16;;;;;;;14.52;9.18;;;;;;;-143.21;82.78;71388.09;5109501;28;20212;-75
2023/07/06 05:12:44;;;;;;;16.85;8.95;;;;;;;-143.21;82.86;71390.09;5109753;28;20256;-77
2023/07/06 05:15:12;;;;;;;12.68;8.90;;;;;;;-143.21;82.75;71386.13;5109207;28;20199;-76
2023/07/06 05:17:40;;;;;;;10.43;8.32;;;;;;;-143.21;83.10;71400.00;5109569;28;20227;-76
2023/07/06 05:20:07;;;;;;;15.07;8.77;;;;;;;-143.21;82.39;71400.00;5109329;28;20210;-75
2023/07/06 05:22:39;;;;;;;14.00;9.45;;;;;;;-143.21;82.54;71405.94;5109883;28;20284;-74
2023/07/06 05:25:07;;;;;;;13.95;9.02;;;;;;;-143.21;82.46;71398.03;5109269;28;20292;-74
2023/07/06 05:27:35;;;;;;;18.92;9.38;;;;;;;-143.21;82.68;71390.09;5108970;28;20232;-76
2023/07/06 05:30:03;;;;;;;16.25;9.35;;;;;;;-143.21;83.10;71392.06;5109282;28;20196;-76
2023/07/06 05:32:30;;;;;;;16.85;9.30;;;;;;;-143.21;82.95;71402.00;5109065;28;20249;-76
2023/07/06 05:34:57;;;;;;;13.13;9.50;;;;;;;-143.21;82.94;71402.00;5107539;28;20284;-76
2023/07/06 05:37:24;;;;;;;11.40;8.20;;;;;;;-143.21;82.84;71400.00;5108657;28;20242;-76
2023/07/06 05:39:51;;;;;;;15.50;8.75;;;;;;;-143.21;82.57;71394.06;5108716;28;20208;-76
2023/07/06 05:42:18;;;;;;;12.93;8.57;;;;;;;-143.21;82.42;71390.09;5108995;28;20711;-76
2023/07/06 05:44:47;;;;;;;15.15;8.90;;;;;;;-143.21;82.74;71405.94;5108253;28;20223;-77
2023/07/06 05:47:14;;;;;;;10.13;8.18;;;;;;;-143.21;83.09;71405.94;5109068;28;20673;-76
2023/07/06 05:49:41;;;;;;;10.75;8.95;;;;;;;-143.21;83.20;71400.00;5108384;28;20664;-76
2023/07/06 05:52:08;;;;;;;12.23;9.48;;;;;;;-143.21;82.78;71396.03;5109213;28;20662;-76
2023/07/06 05:54:35;;;;;;;14.23;9.32;;;;;;;-143.21;82.83;71400.00;5109104;28;20192;-76
2023/07/06 05:57:03;;;;;;;12.65;9.55;;;;;;;-143.21;83.60;71411.91;5108348;28;20861;-76
2023/07/06 05:59:30;;;;;;;12.82;9.25;;;;;;;-143.21;84.18;71415.88;5109128;28;20193;-76
2023/07/06 06:02:00;;;;;;;15.50;10.13;;;;;;;-143.21;84.70;71417.84;5108869;28;20200;-76
2023/07/06 06:04:27;;;;;;;13.48;9.25;;;;;;;-143.21;84.45;71415.88;5108995;28;20227;-76
2023/07/06 06:06:56;;;;;;;11.40;8.52;;;;;;;-143.21;84.41;71411.91;5108952;28;20684;-76
2023/07/06 06:09:25;;;;;;;10.40;8.90;;;;;;;-143.21;83.95;71405.94;5108563;28;20207;-76
2023/07/06 06:11:54;;;;;;;13.70;9.32;;;;;;;-143.21;83.71;71396.03;5107879;28;20211;-76
2023/07/06 06:14:21;;;;;;;13.60;9.52;;;;;;;-143.21;83.26;71386.13;5108888;28;20290;-76
2023/07/06 06:16:48;;;;;;;13.13;9.18;;;;;;;-143.21;82.57;71372.25;5108811;28;20231;-75
2023/07/06 06:19:16;;;;;;;17.70;10.50;;;;;;;-143.21;82.86;71374.22;5108752;28;20682;-76
2023/07/06 06:21:43;;;;;;;31.40;12.82;;;;;;;-143.21;83.04;71368.28;5108688;28;20585;-75
2023/07/06 06:24:11;;;;;;;15.93;9.80;;;;;;;-143.21;82.96;71360.34;5108136;28;20200;-76
2023/07/06 06:26:42;;;;;;;18.88;10.20;;;;;;;-143.21;82.70;71348.47;5108338;28;20192;-76
2023/07/06 06:29:10;;;;;;;12.57;8.60;;;;;;;-143.21;80.23;71330.63;5109071;28;20199;-76
2023/07/06 06:31:36;;;;;;;12.02;9.07;;;;;;;-143.21;79.69;71320.69;5108424;28;20979;-76
2023/07/06 06:34:03;;;;;;;13.20;8.40;;;;;;;-143.21;79.48;71308.81;5106923;28;20663;-77
2023/07/06 06:36:32;;;;;;;15.35;8.73;;;;;;;-143.21;79.27;71304.84;5108635;28;20227;-75
2023/07/06 06:38:59;;;;;;;12.73;8.70;;;;;;;-143.21;79.40;71294.94;5108478;28;20705;-76
2023/07/06 06:41:26;;;;;;;9.80;8.30;;;;;;;-143.21;79.28;71287.00;5108356;28;20226;-78
2023/07/06 06:43:52;;;;;;;12.18;8.13;;;;;;;-143.21;79.25;71277.09;5108775;28;20227;-76
2023/07/06 06:46:19;;;;;;;12.00;7.90;;;;;;;-143.21;78.90;71265.19;5108861;28;20269;-78
2023/07/06 06:48:46;;;;;;;11.00;8.07;;;;;;;-143.21;77.95;71259.25;5108719;28;20688;-79
2023/07/06 06:51:14;;;;;;;14.25;7.85;;;;;;;-143.21;77.77;71259.25;5108766;28;20245;-78
2023/07/06 06:53:43;;;;;;;8.98;6.82;;;;;;;-143.21;77.52;71259.25;5109126;28;20279;-78
2023/07/06 06:56:10;;;;;;;10.82;7.53;;;;;;;-143.21;77.03;71253.28;5108603;28;20268;-78
2023/07/06 06:58:38;;;;;;;10.65;6.93;;;;;;;-143.21;76.05;71241.41;5108707;28;20883;-79
2023/07/06 07:01:06;;;;;;;8.20;7.25;;;;;;;-143.21;75.72;71235.44;5109121;28;20191;-78
2023/07/06 07:03:34;;;;;;;7.57;6.68;;;;;;;-143.21;75.64;71223.56;5111778;28;20199;-78
2023/07/06 07:06:11;;;;;;;8.32;6.85;;;;;;;-143.21;75.88;71209.69;5111934;28;20312;-80
2023/07/06 07:08:38;;;;;;;8.57;7.13;;;;;;;-143.21;75.03;71191.84;5111991;28;20231;-78
2023/07/06 07:11:07;;;;;;;8.00;7.03;;;;;;;-143.21;73.91;71185.88;5112279;28;20235;-78
2023/07/06 07:13:35;;;;;;;13.90;8.32;;;;;;;-143.21;73.18;71177.97;5112388;28;20199;-77
2023/07/06 07:16:02;;;;;;;12.18;7.85;;;;;;;-143.21;73.49;71179.94;5112331;28;20249;-78
2023/07/06 07:18:29;;;;;;;11.88;6.72;;;;;;;-143.21;73.70;71174.00;5112047;28;20199;-78
2023/07/06 07:20:56;;;;;;;9.80;7.70;;;;;;;-143.21;73.72;71160.13;5111352;28;20192;-78
2023/07/06 07:23:25;;;;;;;7.82;6.88;;;;;;;-143.21;73.29;71152.19;5111912;28;20204;-78
2023/07/06 07:25:53;;;;;;;9.30;7.40;;;;;;;-143.21;72.70;71144.25;5111548;28;20230;-78
2023/07/06 07:28:21;;;;;;;9.57;7.32;;;;;;;-143.21;72.94;71136.31;5111750;28;20196;-78
2023/07/06 07:30:56;;;;;;;8.98;6.80;;;;;;;-143.21;72.35;71130.38;5111020;28;20681;-78
2023/07/06 07:33:23;;;;;;;7.80;6.78;;;;;;;-143.21;72.07;71118.50;5110138;27;20192;-78
2023/07/06 07:35:51;;;;;;;11.90;6.88;;;;;;;-143.21;72.22;71108.56;5112009;28;20258;-77
2023/07/06 07:38:18;;;;;;;10.23;7.32;;;;;;;-143.21;72.01;71106.59;5111861;28;20239;-78
2023/07/06 07:40:56;;;;;;;7.38;6.57;;;;;;;-143.21;72.12;71092.72;5111651;28;20291;-78
2023/07/06 07:43:25;;;;;;;12.68;6.53;;;;;;;-143.21;71.20;71084.78;5111731;27;20199;-78
2023/07/06 07:45:55;;;;;;;10.30;6.43;;;;;;;-143.21;70.30;71074.88;5111573;28;20224;-78
2023/07/06 07:48:23;;;;;;;11.93;6.30;;;;;;;-143.21;69.12;71074.88;5111686;28;20666;-79
2023/07/06 07:50:51;;;;;;;11.27;7.00;;;;;;;-143.21;67.37;71061.00;5112198;28;20200;-77
2023/07/06 07:53:18;;;;;;;9.27;6.35;;;;;;;-143.21;66.90;71059.00;5111493;28;20223;-78
2023/07/06 07:55:45;;;;;;;7.38;6.15;;;;;;;-143.21;67.26;71059.00;5111465;28;20639;-77
2023/07/06 07:58:12;;;;;;;8.98;6.20;;;;;;;-143.21;67.59;71055.06;5111249;28;20203;-77
2023/07/06 08:00:40;;;;;;;11.73;6.40;;;;;;;-143.21;67.28;71051.09;5111964;28;20203;-79
2023/07/06 08:03:07;;;;;;;10.13;6.35;;;;;;;-143.21;68.09;71041.16;5111704;28;20195;-78
2023/07/06 08:05:37;;;;;;;13.43;6.60;;;;;;;-143.21;68.93;71021.34;5110894;28;20338;-78
2023/07/06 08:08:05;;;;;;;12.80;6.50;;;;;;;-143.21;68.52;71003.50;5110880;28;20203;-78
2023/07/06 08:10:35;;;;;;;9.02;6.85;;;;;;;-143.21;67.61;70999.53;5129301;27;20203;-79
2023/07/06 08:13:03;;;;;;;7.80;6.25;;;;;;;-143.21;67.03;70995.56;5131492;27;20207;-79
2023/07/06 08:15:30;;;;;;;11.27;6.57;;;;;;;-143.21;66.79;70979.72;5131424;27;20248;-78
2023/07/06 08:18:00;;;;;;;9.57;6.63;;;;;;;-143.21;67.16;70967.81;5131543;27;20665;-79
2023/07/06 08:20:28;;;;;;;12.02;6.88;;;;;;;-143.21;66.53;70948.00;5131468;27;20192;-79
2023/07/06 08:22:57;;;;;;;9.65;6.78;;;;;;;-143.21;65.22;70924.22;5131618;27;20195;-79
2023/07/06 08:25:25;;;;;;;9.43;7.00;;;;;;;-143.21;65.20;70906.38;5131631;27;20222;-79
2023/07/06 08:27:51;;;;;;;9.57;6.78;;;;;;;-143.21;63.77;70894.47;5131317;27;20650;-78
2023/07/06 08:30:20;;;;;;;11.45;6.05;;;;;;;-143.21;65.08;70888.53;5121770;27;20204;-79
2023/07/06 08:32:48;;;;;;;8.75;6.82;;;;;;;-143.21;64.45;70866.72;5109986;28;20584;-77
2023/07/06 08:35:19;;;;;;;17.92;7.57;;;;;;;-143.21;63.07;70856.81;5108961;27;20304;-80
2023/07/06 08:37:46;;;;;;;12.23;6.93;;;;;;;-143.21;63.19;70835.00;5110508;28;20289;-79
2023/07/06 08:40:17;;;;;;;10.98;6.68;;;;;;;-143.21;62.77;70811.22;5110689;28;20207;-81
2023/07/06 08:42:46;;;;;;;11.23;6.57;;;;;;;-143.21;62.04;70795.38;5111287;28;20190;-82
2023/07/06 08:45:18;;;;;;;10.88;6.90;;;;;;;-143.21;62.19;70775.53;5110547;28;20227;-81
2023/07/06 08:47:46;;;;;;;10.65;7.30;;;;;;;-143.21;61.37;70759.69;5092328;28;20893;-79
2023/07/06 08:50:15;;;;;;;8.73;7.45;;;;;;;-143.21;59.52;70761.66;5110162;28;20192;-80
2023/07/06 08:52:44;;;;;;;11.10;7.18;;;;;;;-143.21;60.05;70777.53;5110727;28;20223;-80
2023/07/06 08:55:13;;;;;;;10.82;7.43;;;;;;;-143.21;60.24;70785.44;5111119;28;20199;-80
2023/07/06 08:57:41;;;;;;;12.40;7.57;;;;;;;-143.21;60.64;70785.44;5110722;28;20296;-80
2023/07/06 09:00:21;;;;;;;14.13;7.50;;;;;;;-143.21;61.21;70793.38;5111093;28;20199;-80
2023/07/06 09:02:49;;;;;;;13.70;7.13;;;;;;;-143.21;61.36;70781.50;5110848;28;20253;-81
2023/07/06 09:05:17;;;;;;;8.05;7.10;;;;;;;-143.21;61.31;70773.56;5110947;28;20322;-82
2023/07/06 09:07:46;;;;;;;12.02;7.25;;;;;;;-143.21;60.55;70761.66;5111297;28;20203;-82
2023/07/06 09:10:17;;;;;;;9.55;7.50;;;;;;;-143.21;59.34;70749.78;5127184;27;20203;-81
2023/07/06 09:12:44;;;;;;;9.85;6.78;;;;;;;-143.21;59.29;70757.69;5132013;27;20180;-81
2023/07/06 09:15:16;;;;;;;10.32;7.40;;;;;;;-143.21;60.16;70741.84;5131719;27;20192;-81
2023/07/06 09:17:47;;;;;;;10.73;7.78;;;;;;;-143.21;59.89;70731.94;5114569;27;20200;-80
2023/07/06 09:20:17;;;;;;;16.15;7.68;;;;;;;-143.21;60.70;70710.13;5108841;28;20203;-81
2023/07/06 09:22:48;;;;;;;14.10;7.57;;;;;;;-143.21;59.87;70700.22;5110734;28;20227;-82
2023/07/06 09:25:17;;;;;;;11.52;7.25;;;;;;;-143.21;58.54;70674.44;5110472;28;20191;-80
2023/07/06 09:27:46;;;;;;;10.05;7.50;;;;;;;-143.21;57.27;70680.38;5110705;28;20192;-80
2023/07/06 09:30:29;;;;;;;10.38;6.80;;;;;;;-143.21;57.56;70670.47;5111700;28;20180;-80
2023/07/06 09:33:04;;;;;;;12.10;7.32;;;;;;;-143.21;56.92;70670.47;5112161;28;20639;-81
2023/07/06 09:35:31;;;;;;;12.57;7.57;;;;;;;-143.21;58.11;70674.44;5111849;28;20223;-80
2023/07/06 09:37:59;;;;;;;11.95;7.35;;;;;;;-143.21;57.26;70642.72;5111907;28;20203;-80
2023/07/06 09:40:30;;;;;;;10.32;6.93;;;;;;;-143.21;56.56;70614.97;5129106;27;20203;-80
2023/07/06 09:42:57;;;;;;;9.90;6.97;;;;;;;-143.21;55.88;70595.16;5132415;27;20756;-81
2023/07/06 09:45:27;;;;;;;10.07;6.65;;;;;;;-143.21;55.48;70595.16;5132087;27;20219;-80
2023/07/06 09:47:57;;;;;;;11.10;6.28;;;;;;;-143.21;55.66;70575.34;5132654;27;20531;-80
2023/07/06 09:50:32;;;;;;;11.40;6.35;;;;;;;-143.21;55.30;70547.59;5132274;27;20660;-81
2023/07/06 09:53:00;;;;;;;8.93;6.57;;;;;;;-143.21;54.35;70529.75;5132512;28;20259;-80
2023/07/06 09:55:30;;;;;;;7.85;6.28;;;;;;;-143.21;53.99;70531.72;5131901;28;20284;-80
2023/07/06 09:57:58;;;;;;;11.65;6.40;;;;;;;-143.21;54.67;70519.84;5127174;28;20232;-80
2023/07/06 10:00:31;;;;;;;8.65;5.40;;;;;;;-143.21;54.02;70519.84;5111746;28;20202;-79
2023/07/06 10:03:08;;;;;;;12.38;6.20;;;;;;;-143.21;53.75;70502.00;5111925;28;20596;-80
2023/07/06 10:05:42;;;;;;;9.85;5.75;;;;;;;-143.21;52.85;70500.00;5111058;28;20257;-79
2023/07/06 10:08:13;;;;;;;10.00;5.80;;;;;;;-143.21;52.79;70500.00;5110975;28;20727;-78
2023/07/06 10:10:52;;;;;;;7.78;6.10;;;;;;;-143.21;52.66;70494.06;5111048;28;20636;-79
2023/07/06 10:13:29;;;;;;;10.50;5.65;;;;;;;-143.21;53.04;70517.84;5111587;28;20203;-79
2023/07/06 10:16:03;;;;;;;11.27;6.60;;;;;;;-143.21;53.10;70513.88;5111198;28;20198;-79
2023/07/06 10:18:39;;;;;;;6.70;5.90;;;;;;;-143.21;52.78;70498.03;5111437;28;20234;-79
2023/07/06 10:21:14;;;;;;;9.95;6.05;;;;;;;-143.21;53.24;70484.16;5111654;28;20183;-79
2023/07/06 10:23:52;;;;;;;10.27;5.53;;;;;;;-143.21;53.29;70474.25;5111282;28;20230;-80
2023/07/06 10:26:26;;;;;;;7.07;5.80;;;;;;;-143.21;53.74;70470.28;5111235;28;20216;-80
2023/07/06 10:29:00;;;;;;;11.13;5.70;;;;;;;-143.21;53.40;70482.19;5111579;28;20183;-80
2023/07/06 10:31:32;;;;;;;7.65;6.10;;;;;;;-143.21;53.09;70502.00;5111724;28;20188;-80
2023/07/06 10:34:06;;;;;;;9.30;5.75;;;;;;;-143.21;53.89;70527.75;5111574;28;20191;-80
2023/07/06 10:36:35;;;;;;;8.10;6.13;;;;;;;-143.21;55.06;70515.88;5113005;28;20220;-79
2023/07/06 10:39:13;;;;;;;12.18;6.88;;;;;;;-143.21;53.98;70488.13;5115272;28;20661;-80
2023/07/06 10:41:44;;;;;;;12.05;6.60;;;;;;;-143.21;52.89;70464.34;5115146;28;20223;-80
2023/07/06 10:44:43;;;;;;;8.75;6.15;;;;;;;-143.21;50.69;70444.53;5115350;28;20219;-80
2023/07/06 10:47:36;;;;;;;8.50;5.82;;;;;;;-143.21;50.21;70424.69;5109849;28;20723;-80
2023/07/06 10:50:27;;;;;;;10.23;6.40;;;;;;;-143.21;50.52;70424.69;5115336;28;20188;-80
2023/07/06 10:53:02;;;;;;;8.70;6.40;;;;;;;-143.21;50.15;70400.91;5114904;28;20245;-80
2023/07/06 10:55:35;;;;;;;15.52;6.50;;;;;;;-143.21;50.86;70373.16;5114865;28;20661;-80
2023/07/06 10:58:24;;;;;;;9.55;6.35;;;;;;;-143.21;49.74;70337.50;5114960;28;20651;-80
2023/07/06 11:00:52;;;;;;;9.75;6.47;;;;;;;-143.21;49.05;70305.78;5114976;28;20311;-80
2023/07/06 11:03:24;;;;;;;9.45;5.85;;;;;;;-143.21;48.68;70345.41;5115083;28;20216;-80
2023/07/06 11:05:58;;;;;;;11.02;5.82;;;;;;;-143.21;49.58;70333.53;5114681;28;20200;-80
2023/07/06 11:09:04;;;;;;;9.98;6.18;;;;;;;-143.21;50.17;70309.75;5114756;28;20310;-80
2023/07/06 11:11:35;;;;;;;9.73;6.63;;;;;;;-143.21;49.36;70293.88;5114845;28;20211;-80
2023/07/06 11:14:22;;;;;;;8.63;6.43;;;;;;;-143.21;48.66;70274.06;5114580;28;20192;-80
2023/07/06 11:16:56;;;;;;;10.00;6.70;;;;;;;-143.21;48.26;70250.28;5100738;28;20270;-79
2023/07/06 11:19:28;;;;;;;7.60;6.80;;;;;;;-143.21;48.37;70258.22;5114600;28;20219;-79